Bo Airport

Jump to: basic info | weather | comments

Related pages: nearby airports | nearby navaids | notams | map

Basic information (top)

Codes: KBS GFBO
Location: lon 7.944400, lat -11.761000, elev 328 ft / 100 m msl
Status: medium_airport
Scheduled airline service: yes
Links: Wikipedia Mobile

Weather (top)

Current conditions for Lungi International Airport 94nm (175km) WNW (rec'd 2014/08/29 01:00Z):

GFLL 290100Z 21007KT 9999 BKN010 FEW027CB 25/24 Q1012 RMK CB-NE

Airport forecast for Lungi International Airport 94nm (175km) WNW (rec'd 2014/08/28 00:00Z):

TAF GFLL 282200Z 2900/3006 24008KT 9999 BKN010 PROB30 
      TEMPO 2900/2906 18010KT 7000 SHRA BKN009 
      BECMG 2907/2909 21007KT 9000 RA 
      TEMPO 2910/2918 27009KT 9999 BKN013 FEW027CB

Latest comments (top)

No comments yet for Bo Airport

More... (top)

See also NOTAMs and nearby airports and navaids, or visit the Bo Airport page at the main OurAirports website..